createdAt,value
2022-08-11T00:01:26.188Z,58.62
2022-08-11T00:03:57.497Z,58.56
2022-08-11T00:06:52.680Z,58.58
2022-08-11T00:09:31.400Z,58.63
2022-08-11T00:12:00.552Z,58.71
2022-08-11T00:14:36.770Z,58.83
2022-08-11T00:17:09.997Z,58.90
2022-08-11T00:20:14.102Z,59.01
2022-08-11T00:22:32.579Z,59.19
2022-08-11T00:25:10.152Z,59.26
2022-08-11T00:27:40.457Z,59.65
2022-08-11T00:30:11.491Z,59.76
2022-08-11T00:32:44.193Z,59.81
2022-08-11T00:35:55.614Z,59.82
2022-08-11T00:38:07.986Z,59.99
2022-08-11T00:40:51.086Z,60.08
2022-08-11T00:43:22.411Z,60.12
2022-08-11T00:46:12.137Z,60.17
2022-08-11T00:49:26.444Z,60.26
2022-08-11T00:52:13.156Z,60.51
2022-08-11T00:55:21.149Z,60.49
2022-08-11T00:58:26.935Z,60.70
2022-08-11T01:01:02.015Z,60.79
2022-08-11T01:04:06.035Z,60.98
2022-08-11T01:07:07.440Z,61.07
2022-08-11T01:09:53.863Z,61.11
2022-08-11T01:12:41.005Z,61.19
2022-08-11T01:15:55.830Z,61.27
2022-08-11T01:19:04.265Z,61.27
2022-08-11T01:22:05.794Z,61.43
2022-08-11T01:25:02.113Z,61.41
2022-08-11T01:28:18.835Z,61.43
2022-08-11T01:31:23.802Z,61.43
2022-08-11T01:34:04.527Z,61.43
2022-08-11T01:37:14.253Z,61.56
2022-08-11T01:40:10.371Z,61.61
2022-08-11T01:43:02.923Z,61.60
2022-08-11T01:45:55.641Z,61.69
2022-08-11T01:48:35.920Z,61.75
2022-08-11T01:51:31.063Z,61.76
2022-08-11T01:54:11.369Z,61.78
2022-08-11T01:57:13.705Z,61.82
2022-08-11T01:59:50.747Z,62.08
2022-08-11T02:02:50.200Z,62.21
2022-08-11T02:05:46.410Z,62.47
2022-08-11T02:08:33.415Z,62.62
2022-08-11T02:11:35.133Z,62.78
2022-08-11T02:14:13.208Z,62.83
2022-08-11T02:16:56.554Z,62.82
2022-08-11T02:20:31.022Z,63.04
2022-08-11T02:24:03.793Z,62.88
2022-08-11T02:26:40.333Z,63.04
2022-08-11T02:29:17.909Z,63.14
2022-08-11T02:32:32.991Z,63.39
2022-08-11T02:35:14.536Z,63.58
2022-08-11T02:37:52.193Z,63.60
2022-08-11T02:40:35.159Z,63.47
2022-08-11T02:43:29.592Z,63.40
2022-08-11T02:46:19.262Z,63.28
2022-08-11T02:49:24.126Z,63.14
2022-08-11T02:52:22.827Z,63.04
2022-08-11T02:55:13.454Z,62.89
2022-08-11T02:58:27.373Z,62.83
2022-08-11T03:01:15.133Z,62.62
2022-08-11T03:03:43.425Z,62.49
2022-08-11T03:06:23.646Z,62.34
2022-08-11T03:09:11.512Z,62.15
2022-08-11T03:12:27.826Z,62.01
2022-08-11T03:15:37.761Z,62.04
2022-08-11T03:18:07.009Z,62.20
2022-08-11T03:21:07.459Z,62.37
2022-08-11T03:23:54.991Z,62.52
2022-08-11T03:26:39.245Z,62.81
2022-08-11T03:29:27.616Z,62.92
2022-08-11T03:32:02.476Z,62.99
2022-08-11T03:34:36.938Z,63.04
2022-08-11T03:37:50.644Z,63.10
2022-08-11T03:40:37.625Z,63.26
2022-08-11T03:43:27.131Z,63.26
2022-08-11T03:46:27.645Z,63.41
2022-08-11T03:49:21.161Z,63.50
2022-08-11T03:52:02.500Z,63.63
2022-08-11T03:54:56.490Z,63.58
2022-08-11T03:58:04.009Z,63.68
2022-08-11T04:01:23.221Z,63.71
2022-08-11T04:04:37.852Z,63.90
2022-08-11T04:07:17.662Z,64.06
2022-08-11T04:10:04.199Z,64.30
2022-08-11T04:12:51.267Z,64.58
2022-08-11T04:15:45.052Z,64.59
2022-08-11T04:18:32.238Z,64.32
2022-08-11T04:21:28.646Z,64.39
2022-08-11T04:24:37.066Z,64.22
2022-08-11T04:27:37.024Z,64.54
2022-08-11T04:30:31.545Z,64.33
2022-08-11T04:33:12.017Z,64.64
2022-08-11T04:35:48.668Z,64.58
2022-08-11T04:38:36.936Z,64.74
2022-08-11T04:41:33.738Z,64.72
2022-08-11T04:44:28.607Z,64.57
2022-08-11T04:48:03.638Z,63.98
2022-08-11T04:51:17.550Z,63.85
2022-08-11T04:54:28.534Z,63.84
2022-08-11T04:57:24.800Z,63.87
2022-08-11T05:00:26.044Z,63.89
2022-08-11T05:03:09.330Z,63.45
2022-08-11T05:06:11.951Z,62.84
2022-08-11T05:08:46.225Z,62.70
2022-08-11T05:11:29.513Z,62.48
2022-08-11T05:14:31.265Z,62.33
2022-08-11T05:17:43.580Z,62.12
2022-08-11T05:20:31.683Z,62.14
2022-08-11T05:23:27.725Z,62.06
2022-08-11T05:26:46.487Z,62.06
2022-08-11T05:29:45.639Z,62.16
2022-08-11T05:32:36.374Z,61.77
2022-08-11T05:35:08.018Z,61.67
2022-08-11T05:38:03.230Z,61.37
2022-08-11T05:40:53.091Z,61.47
2022-08-11T05:44:21.113Z,61.02
2022-08-11T05:47:01.747Z,60.51
2022-08-11T05:49:50.888Z,60.53
2022-08-11T05:52:43.823Z,60.21
2022-08-11T05:55:35.118Z,60.68
2022-08-11T05:58:06.871Z,60.23
2022-08-11T06:00:46.600Z,60.01
2022-08-11T06:03:27.466Z,59.31
2022-08-11T06:05:58.777Z,59.14
2022-08-11T06:08:32.986Z,59.35
2022-08-11T06:11:05.297Z,58.99
2022-08-11T06:13:35.649Z,59.12
2022-08-11T06:16:07.008Z,59.10
2022-08-11T06:18:37.215Z,58.85
2022-08-11T06:21:11.570Z,58.79
2022-08-11T06:23:42.562Z,58.69
2022-08-11T06:26:14.137Z,58.40
2022-08-11T06:28:45.612Z,58.44
2022-08-11T06:31:18.897Z,58.30
2022-08-11T06:34:27.648Z,58.17
2022-08-11T06:37:07.984Z,58.22
2022-08-11T06:40:01.338Z,57.85
2022-08-11T06:42:55.825Z,57.96
2022-08-11T06:45:30.880Z,57.52
2022-08-11T06:48:01.062Z,57.62
2022-08-11T06:50:50.418Z,57.52
2022-08-11T06:53:19.738Z,57.33
2022-08-11T06:56:19.220Z,57.03
2022-08-11T06:59:08.112Z,56.50
2022-08-11T07:02:05.419Z,56.77
2022-08-11T07:04:45.029Z,56.65
2022-08-11T07:07:49.855Z,56.36
2022-08-11T07:10:48.122Z,56.40
2022-08-11T07:13:45.436Z,56.55
2022-08-11T07:16:24.339Z,56.16
2022-08-11T07:19:25.458Z,56.07
2022-08-11T07:22:16.045Z,56.10
2022-08-11T07:25:32.945Z,55.81
2022-08-11T07:28:30.993Z,55.72
2022-08-11T07:31:07.532Z,55.35
2022-08-11T07:34:07.860Z,55.03
2022-08-11T07:36:43.017Z,54.76
2022-08-11T07:39:18.861Z,54.72
2022-08-11T07:41:49.368Z,54.60
2022-08-11T07:44:18.335Z,54.31
2022-08-11T07:47:08.035Z,54.05
2022-08-11T07:49:57.681Z,53.34
2022-08-11T07:52:31.078Z,52.70
2022-08-11T07:55:08.525Z,52.30
2022-08-11T07:58:16.576Z,52.40
2022-08-11T08:01:21.860Z,52.13
2022-08-11T08:04:10.083Z,51.41
2022-08-11T08:06:58.612Z,50.99
2022-08-11T08:09:45.645Z,50.86
2022-08-11T08:12:34.152Z,50.46
2022-08-11T08:15:26.065Z,49.32
2022-08-11T08:18:20.477Z,49.33
2022-08-11T08:20:48.184Z,49.19
2022-08-11T08:23:33.565Z,49.39
2022-08-11T08:26:30.540Z,49.21
2022-08-11T08:29:20.794Z,48.76
2022-08-11T08:31:50.117Z,48.58
2022-08-11T08:34:19.097Z,48.53
2022-08-11T08:36:51.808Z,48.75
2022-08-11T08:39:21.994Z,48.26
2022-08-11T08:41:55.077Z,47.55
2022-08-11T08:44:38.524Z,46.94
2022-08-11T08:47:42.431Z,46.07
2022-08-11T08:50:16.776Z,45.71
2022-08-11T08:52:55.001Z,45.69
2022-08-11T08:55:24.301Z,45.50
2022-08-11T08:57:56.599Z,45.11
2022-08-11T09:00:25.424Z,44.81
2022-08-11T09:02:54.086Z,44.49
2022-08-11T09:05:26.098Z,43.49
2022-08-11T09:07:55.377Z,43.06
2022-08-11T09:10:25.105Z,42.54
2022-08-11T09:12:53.867Z,41.48
2022-08-11T09:15:23.887Z,42.22
2022-08-11T09:17:58.469Z,42.78
2022-08-11T09:20:29.449Z,42.91
2022-08-11T09:26:30.755Z,43.32
2022-08-11T09:29:01.934Z,43.36
2022-08-11T09:31:38.988Z,43.42
2022-08-11T09:34:11.248Z,43.41
2022-08-11T09:37:01.642Z,43.43
2022-08-11T09:39:49.935Z,43.16
2022-08-11T09:42:23.148Z,42.52
2022-08-11T09:44:53.880Z,42.63
2022-08-11T09:47:28.670Z,42.67
2022-08-11T09:50:01.939Z,42.80
2022-08-11T09:52:36.026Z,42.43
2022-08-11T09:55:11.591Z,42.14
2022-08-11T09:58:00.381Z,42.19
2022-08-11T10:00:38.013Z,42.30
2022-08-11T10:03:11.775Z,42.07
2022-08-11T10:06:07.751Z,41.52
2022-08-11T10:08:39.477Z,41.17
2022-08-11T10:11:12.037Z,40.41
2022-08-11T10:14:33.971Z,41.04
2022-08-11T10:16:53.402Z,40.97
2022-08-11T10:19:22.290Z,41.15
2022-08-11T10:22:13.877Z,41.36
2022-08-11T10:25:03.298Z,41.26
2022-08-11T10:28:09.003Z,40.94
2022-08-11T10:30:42.341Z,41.01
2022-08-11T10:33:36.907Z,40.82
2022-08-11T10:36:16.739Z,41.11
2022-08-11T10:38:52.508Z,40.75
2022-08-11T10:42:06.198Z,41.14
2022-08-11T10:44:30.029Z,40.97
2022-08-11T10:47:16.917Z,40.71
2022-08-11T10:50:05.559Z,40.48
2022-08-11T10:52:54.529Z,40.75
2022-08-11T10:55:43.595Z,39.57
2022-08-11T10:58:31.746Z,36.82
2022-08-11T11:01:01.373Z,37.51
2022-08-11T11:03:34.673Z,37.96
2022-08-11T11:06:29.255Z,37.92
2022-08-11T11:09:07.334Z,35.99
2022-08-11T11:12:02.569Z,36.18
2022-08-11T11:14:58.208Z,36.87
2022-08-11T11:17:56.711Z,36.82
2022-08-11T11:20:45.175Z,37.24
2022-08-11T11:23:34.340Z,36.98
2022-08-11T11:26:40.184Z,37.18
2022-08-11T11:29:20.946Z,37.36
2022-08-11T11:32:12.394Z,36.69
2022-08-11T11:34:59.633Z,36.37
2022-08-11T11:37:33.374Z,36.40
2022-08-11T11:40:10.645Z,36.74
2022-08-11T11:42:45.475Z,36.88
2022-08-11T11:45:24.169Z,37.35
2022-08-11T11:47:54.567Z,37.11
2022-08-11T11:50:32.996Z,37.18
2022-08-11T11:53:05.370Z,37.56
2022-08-11T11:55:35.553Z,37.40
2022-08-11T11:58:23.586Z,36.91
2022-08-11T12:01:12.042Z,36.63
2022-08-11T12:03:41.271Z,37.00
2022-08-11T12:06:14.836Z,36.36
2022-08-11T12:08:45.172Z,36.30
2022-08-11T12:11:32.694Z,36.63
2022-08-11T12:14:04.665Z,36.43
2022-08-11T12:16:44.828Z,36.12
2022-08-11T12:19:21.540Z,35.78
2022-08-11T12:22:10.623Z,35.21
2022-08-11T12:24:57.450Z,35.17
2022-08-11T12:27:29.875Z,35.35
2022-08-11T12:30:08.697Z,35.50
2022-08-11T12:32:39.088Z,35.25
2022-08-11T12:35:09.035Z,35.22
2022-08-11T12:37:41.712Z,35.15
2022-08-11T12:40:42.600Z,34.27
2022-08-11T12:43:46.191Z,33.62
2022-08-11T12:46:32.214Z,33.63
2022-08-11T12:49:47.609Z,34.03
2022-08-11T12:52:24.164Z,34.40
2022-08-11T12:55:02.898Z,34.12
2022-08-11T12:58:07.735Z,34.08
2022-08-11T13:04:45.442Z,33.34
2022-08-11T13:07:21.529Z,33.74
2022-08-11T13:09:52.215Z,33.36
2022-08-11T13:19:26.785Z,32.80
2022-08-11T13:21:55.876Z,33.16
2022-08-11T13:24:25.126Z,32.68
2022-08-11T13:26:54.351Z,32.72
2022-08-11T13:29:31.992Z,32.76
2022-08-11T13:33:00.728Z,32.46
2022-08-11T13:35:32.043Z,32.38
2022-08-11T13:38:17.729Z,32.29
2022-08-11T13:44:48.681Z,31.44
2022-08-11T13:47:25.161Z,30.79
2022-08-11T13:49:58.350Z,30.58
2022-08-11T13:52:30.666Z,31.34
2022-08-11T13:55:08.496Z,31.03
2022-08-11T13:58:08.725Z,30.91
2022-08-11T14:00:31.613Z,30.85
2022-08-11T14:03:09.224Z,30.75
2022-08-11T14:05:47.625Z,30.58
2022-08-11T14:08:31.744Z,30.74
2022-08-11T14:12:22.030Z,30.62
2022-08-11T14:14:22.698Z,30.11
2022-08-11T14:16:58.012Z,29.41
2022-08-11T14:19:28.185Z,30.33
2022-08-11T14:22:09.499Z,30.42
2022-08-11T14:24:43.796Z,30.96
2022-08-11T14:27:39.101Z,31.38
2022-08-11T14:30:27.817Z,31.61
2022-08-11T14:33:58.355Z,31.36
2022-08-11T14:37:51.788Z,30.32
2022-08-11T14:40:48.675Z,30.45
2022-08-11T14:44:13.276Z,30.22
2022-08-11T14:46:52.854Z,30.46
2022-08-11T14:49:22.276Z,30.32
2022-08-11T14:51:57.226Z,30.85
2022-08-11T14:54:50.970Z,30.84
2022-08-11T14:58:04.558Z,30.40
2022-08-11T15:00:37.289Z,30.56
2022-08-11T15:06:28.957Z,30.09
2022-08-11T15:08:58.182Z,30.41
2022-08-11T15:12:03.835Z,30.68
2022-08-11T15:21:28.726Z,29.74
2022-08-11T15:24:17.409Z,29.63
2022-08-11T15:33:27.101Z,33.23
2022-08-11T15:45:53.002Z,36.20
2022-08-11T15:51:38.728Z,36.40
2022-08-11T15:54:32.812Z,36.67
2022-08-11T15:57:06.163Z,36.69
2022-08-11T15:59:57.189Z,36.69
2022-08-11T16:02:45.761Z,36.31
2022-08-11T16:05:45.325Z,36.24
2022-08-11T16:08:07.089Z,36.12
2022-08-11T16:10:39.818Z,36.36
2022-08-11T16:13:11.394Z,36.21
2022-08-11T16:16:07.782Z,36.38
2022-08-11T16:18:54.076Z,36.39
2022-08-11T16:21:35.937Z,36.32
2022-08-11T16:27:02.910Z,36.30
2022-08-11T16:27:12.351Z,36.28
2022-08-11T16:29:46.110Z,36.12
2022-08-11T16:32:20.534Z,36.23
2022-08-11T16:35:11.638Z,36.36
2022-08-11T16:38:00.366Z,36.45
2022-08-11T16:40:30.724Z,36.47
2022-08-11T16:43:19.977Z,36.33
2022-08-11T16:46:08.110Z,36.46
2022-08-11T16:48:41.552Z,36.43
2022-08-11T16:51:13.499Z,36.66
2022-08-11T16:53:59.693Z,36.67
2022-08-11T16:56:48.311Z,36.64
2022-08-11T16:59:37.510Z,36.52
2022-08-11T17:02:12.289Z,36.61
2022-08-11T17:05:10.616Z,36.77
2022-08-11T17:08:01.329Z,36.81
2022-08-11T17:10:57.632Z,36.92
2022-08-11T17:13:37.253Z,37.04
2022-08-11T17:16:12.904Z,37.12
2022-08-11T17:18:41.378Z,37.01
2022-08-11T17:21:18.796Z,36.92
2022-08-11T17:24:14.747Z,37.24
2022-08-11T17:26:57.772Z,37.22
2022-08-11T17:29:54.507Z,37.26
2022-08-11T17:33:00.178Z,37.35
2022-08-11T17:35:39.104Z,37.50
2022-08-11T17:39:00.901Z,37.60
2022-08-11T17:42:16.499Z,37.52
2022-08-11T17:45:15.841Z,37.81
2022-08-11T17:48:03.723Z,38.04
2022-08-11T17:50:37.640Z,38.03
2022-08-11T17:53:36.097Z,38.23
2022-08-11T18:06:56.044Z,38.93
2022-08-11T18:10:10.019Z,39.05
2022-08-11T18:13:07.371Z,39.56
2022-08-11T18:16:03.099Z,39.60
2022-08-11T18:18:53.015Z,39.76
2022-08-11T18:31:24.240Z,40.37
2022-08-11T18:41:51.200Z,41.16
2022-08-11T18:44:51.355Z,40.98
2022-08-11T18:47:46.709Z,41.62
2022-08-11T18:51:30.428Z,41.90
2022-08-11T19:01:56.964Z,42.18
2022-08-11T19:05:04.797Z,42.30
2022-08-11T19:07:53.249Z,42.44
2022-08-11T19:10:40.759Z,43.01
2022-08-11T19:13:31.124Z,43.30
2022-08-11T19:16:32.101Z,43.57
2022-08-11T19:19:55.539Z,44.00
2022-08-11T19:39:45.056Z,45.54
2022-08-11T19:42:33.524Z,45.93
2022-08-11T19:45:37.671Z,46.14
2022-08-11T19:48:32.026Z,46.29
2022-08-11T19:51:32.701Z,46.50
2022-08-11T19:54:27.132Z,46.81
2022-08-11T19:57:32.508Z,47.10
2022-08-11T20:00:40.555Z,47.00
2022-08-11T20:08:13.398Z,46.97
2022-08-11T20:11:01.167Z,47.14
2022-08-11T20:13:49.982Z,47.49
2022-08-11T20:16:39.823Z,47.66
2022-08-11T20:19:56.128Z,47.67
2022-08-11T20:22:39.643Z,47.44
2022-08-11T20:25:35.612Z,47.38
2022-08-11T20:28:26.309Z,47.19
2022-08-11T20:31:14.439Z,47.31
2022-08-11T20:34:44.276Z,47.31
2022-08-11T20:37:51.426Z,47.30
2022-08-11T20:42:08.474Z,47.43
2022-08-11T20:49:16.668Z,47.72
2022-08-11T20:50:58.063Z,47.80
2022-08-11T20:51:07.611Z,47.96
2022-08-11T20:54:05.419Z,48.26
2022-08-11T20:56:54.491Z,48.69
2022-08-11T20:59:52.786Z,48.91
2022-08-11T21:02:51.798Z,49.39
2022-08-11T21:06:08.268Z,49.63
2022-08-11T21:09:02.816Z,49.79
2022-08-11T21:11:53.548Z,49.82
2022-08-11T21:14:45.057Z,49.71
2022-08-11T21:21:45.950Z,49.67
2022-08-11T21:24:47.134Z,49.52
2022-08-11T21:27:38.756Z,49.65
2022-08-11T21:30:26.908Z,49.99
2022-08-11T21:33:14.194Z,50.05
2022-08-11T21:36:03.567Z,50.41
2022-08-11T21:38:50.763Z,50.36
2022-08-11T21:41:38.955Z,50.44
2022-08-11T21:44:27.359Z,50.57
2022-08-11T21:47:18.505Z,50.78
2022-08-11T21:50:22.711Z,51.13
2022-08-11T21:53:10.746Z,51.25
2022-08-11T21:55:59.038Z,51.52
2022-08-11T21:58:46.650Z,51.86
2022-08-11T22:01:34.650Z,51.86
2022-08-11T22:04:23.790Z,52.01
2022-08-11T22:07:10.957Z,51.97
2022-08-11T22:09:58.027Z,52.18
2022-08-11T22:12:45.705Z,52.54
2022-08-11T22:15:34.604Z,52.73
2022-08-11T22:18:21.771Z,52.98
2022-08-11T22:21:10.009Z,53.06
2022-08-11T22:24:02.485Z,53.04
2022-08-11T22:26:53.432Z,53.24
2022-08-11T22:29:51.240Z,53.43
2022-08-11T22:32:38.986Z,53.45
2022-08-11T22:35:35.475Z,53.41
2022-08-11T22:38:23.593Z,53.43
2022-08-11T22:41:12.762Z,53.66
2022-08-11T22:44:01.829Z,53.66
2022-08-11T22:46:49.644Z,53.82
2022-08-11T22:50:15.114Z,53.83
2022-08-11T22:53:05.555Z,53.75
2022-08-11T22:56:14.400Z,53.77
2022-08-11T22:59:24.237Z,53.86
2022-08-11T23:02:14.324Z,53.68
2022-08-11T23:05:06.777Z,53.78
2022-08-11T23:08:00.128Z,53.78
2022-08-11T23:11:04.485Z,53.72
2022-08-11T23:13:53.397Z,53.60
2022-08-11T23:16:50.036Z,53.61
2022-08-11T23:20:01.578Z,53.62
2022-08-11T23:22:50.208Z,53.65
2022-08-11T23:25:59.176Z,53.66
2022-08-11T23:29:05.333Z,53.69
2022-08-11T23:31:58.271Z,53.91
2022-08-11T23:35:03.456Z,53.94
2022-08-11T23:38:09.437Z,54.00
2022-08-11T23:41:00.585Z,53.81
2022-08-11T23:43:51.508Z,53.77
2022-08-11T23:46:48.683Z,53.77
2022-08-11T23:49:37.227Z,53.78
2022-08-11T23:52:27.547Z,53.77
2022-08-11T23:55:32.961Z,53.82
2022-08-11T23:58:28.608Z,53.74
